createdAt,value
2018-05-03T00:01:20.708Z,92.00
2018-05-03T00:03:48.183Z,92.40
2018-05-03T00:06:15.646Z,92.50
2018-05-03T00:08:43.891Z,92.80
2018-05-03T00:11:11.376Z,92.80
2018-05-03T00:13:38.836Z,92.80
2018-05-03T00:16:06.305Z,92.70
2018-05-03T00:18:33.786Z,92.70
2018-05-03T00:21:02.015Z,92.90
2018-05-03T00:23:29.490Z,92.90
2018-05-03T00:25:56.960Z,93.10
2018-05-03T00:28:24.452Z,93.00
2018-05-03T00:30:51.910Z,93.00
2018-05-03T00:33:19.413Z,92.90
2018-05-03T00:35:46.876Z,92.80
2018-05-03T00:38:14.343Z,92.80
2018-05-03T00:40:41.819Z,92.80
2018-05-03T00:43:09.286Z,92.90
2018-05-03T00:45:36.747Z,93.10
2018-05-03T00:48:04.214Z,93.10
2018-05-03T00:50:31.684Z,93.30
2018-05-03T00:52:59.140Z,93.30
2018-05-03T00:55:26.617Z,93.00
2018-05-03T00:57:54.086Z,93.10
2018-05-03T01:00:21.554Z,93.00
2018-05-03T01:02:49.042Z,92.60
2018-05-03T01:05:17.276Z,92.60
2018-05-03T01:07:44.742Z,92.60
2018-05-03T01:10:12.211Z,92.40
2018-05-03T01:12:39.682Z,92.50
2018-05-03T01:15:07.168Z,92.30
2018-05-03T01:17:34.637Z,92.20
2018-05-03T01:20:02.100Z,92.30
2018-05-03T01:22:29.558Z,92.70
2018-05-03T01:24:57.035Z,92.80
2018-05-03T01:27:25.282Z,93.90
2018-05-03T01:29:52.754Z,93.80
2018-05-03T01:32:20.206Z,93.90
2018-05-03T01:35:12.230Z,94.20
2018-05-03T01:37:39.694Z,94.20
2018-05-03T01:40:07.152Z,94.50
2018-05-03T01:42:34.620Z,94.60
2018-05-03T01:45:02.108Z,94.60
2018-05-03T01:47:29.558Z,94.70
2018-05-03T01:49:57.030Z,94.70
2018-05-03T01:52:24.504Z,94.60
2018-05-03T01:54:51.962Z,94.60
2018-05-03T01:57:19.434Z,94.70
2018-05-03T01:59:46.897Z,94.80
2018-05-03T02:02:14.352Z,94.60
2018-05-03T02:04:41.818Z,94.70
2018-05-03T02:07:09.283Z,94.70
2018-05-03T02:09:36.742Z,94.80
2018-05-03T02:12:04.202Z,94.90
2018-05-03T02:14:31.714Z,94.90
2018-05-03T02:16:59.280Z,94.90
2018-05-03T02:19:26.728Z,94.90
2018-05-03T02:21:54.948Z,94.90
2018-05-03T02:24:23.190Z,95.00
2018-05-03T02:26:51.431Z,95.00
2018-05-03T02:29:18.894Z,95.00
2018-05-03T02:31:46.379Z,95.10
2018-05-03T02:34:14.657Z,95.30
2018-05-03T02:36:42.889Z,95.40
2018-05-03T02:39:10.355Z,95.40
2018-05-03T02:41:37.816Z,95.40
2018-05-03T02:44:05.312Z,95.40
2018-05-03T02:46:32.776Z,95.40
2018-05-03T02:49:00.239Z,95.40
2018-05-03T02:51:27.712Z,95.40
2018-05-03T02:53:55.165Z,95.50
2018-05-03T02:56:22.637Z,95.80
2018-05-03T02:59:02.023Z,95.90
2018-05-03T03:01:46.984Z,96.00
2018-05-03T03:04:31.930Z,96.30
2018-05-03T03:07:27.318Z,96.30
2018-05-03T03:13:52.519Z,96.30
2018-05-03T03:16:37.547Z,96.30
2018-05-03T03:19:23.349Z,96.20
2018-05-03T03:22:18.987Z,96.20
2018-05-03T03:25:08.092Z,96.10
2018-05-03T03:27:53.108Z,96.20
2018-05-03T03:30:46.922Z,96.30
2018-05-03T03:33:26.257Z,96.40
2018-05-03T03:36:05.567Z,96.50
2018-05-03T03:38:44.983Z,96.70
2018-05-03T03:41:24.197Z,96.70
2018-05-03T03:44:03.535Z,96.80
2018-05-03T03:46:30.999Z,97.00
2018-05-03T03:48:58.469Z,97.10
2018-05-03T03:51:25.926Z,97.10
2018-05-03T03:53:53.401Z,97.30
2018-05-03T03:56:20.852Z,97.50
2018-05-03T03:58:48.319Z,97.60
2018-05-03T04:01:15.793Z,97.70
2018-05-03T04:03:43.249Z,97.80
2018-05-03T04:06:10.716Z,97.90
2018-05-03T04:08:38.193Z,98.60
2018-05-03T04:11:05.663Z,98.50
2018-05-03T04:13:33.145Z,98.80
2018-05-03T04:16:00.615Z,98.70
2018-05-03T04:18:39.798Z,99.00
2018-05-03T04:21:19.207Z,99.00
2018-05-03T04:24:11.029Z,98.80
2018-05-03T04:26:39.260Z,98.90
2018-05-03T04:29:06.724Z,98.90
2018-05-03T04:31:34.187Z,99.10
2018-05-03T04:34:01.649Z,98.90
2018-05-03T04:36:29.139Z,99.10
2018-05-03T04:38:56.616Z,98.70
2018-05-03T04:41:24.852Z,98.60
2018-05-03T04:43:52.306Z,98.50
2018-05-03T04:46:19.783Z,98.40
2018-05-03T04:48:47.272Z,98.10
2018-05-03T04:51:14.741Z,98.20
2018-05-03T04:53:42.213Z,98.10
2018-05-03T04:56:10.444Z,97.90
2018-05-03T04:58:37.901Z,97.90
2018-05-03T05:01:05.381Z,97.80
2018-05-03T05:03:33.680Z,97.60
2018-05-03T05:06:01.166Z,97.60
2018-05-03T05:08:28.622Z,97.40
2018-05-03T05:10:56.083Z,97.40
2018-05-03T05:13:23.550Z,97.40
2018-05-03T05:15:51.769Z,97.10
2018-05-03T05:18:19.231Z,97.10
2018-05-03T05:20:46.687Z,96.80
2018-05-03T05:23:14.176Z,96.60
2018-05-03T05:25:41.649Z,96.40
2018-05-03T05:28:09.098Z,96.30
2018-05-03T05:30:36.791Z,96.30
2018-05-03T05:33:04.962Z,96.20
2018-05-03T05:35:32.456Z,96.20
2018-05-03T05:37:59.920Z,96.00
2018-05-03T05:40:27.383Z,96.00
2018-05-03T05:42:54.853Z,96.00
2018-05-03T05:45:22.317Z,95.70
2018-05-03T05:47:49.785Z,95.80
2018-05-03T05:50:18.022Z,95.70
2018-05-03T05:52:45.509Z,95.70
2018-05-03T05:55:12.983Z,95.70
2018-05-03T05:57:40.458Z,94.70
2018-05-03T06:00:07.918Z,94.50
2018-05-03T06:02:36.154Z,93.90
2018-05-03T06:05:03.638Z,93.90
2018-05-03T06:07:31.118Z,93.40
2018-05-03T06:09:58.591Z,93.20
2018-05-03T06:12:26.180Z,93.30
2018-05-03T06:14:54.293Z,92.30
2018-05-03T06:17:21.740Z,92.30
2018-05-03T06:19:49.210Z,91.90
2018-05-03T06:22:16.697Z,91.30
2018-05-03T06:24:44.162Z,91.50
2018-05-03T06:27:11.623Z,90.40
2018-05-03T06:29:39.106Z,90.60
2018-05-03T06:32:06.566Z,90.20
2018-05-03T06:34:34.032Z,90.20
2018-05-03T06:37:01.503Z,90.20
2018-05-03T06:39:28.968Z,89.70
2018-05-03T06:41:56.428Z,89.30
2018-05-03T06:44:23.895Z,89.30
2018-05-03T06:46:51.353Z,88.40
2018-05-03T06:49:18.820Z,87.50
2018-05-03T06:51:46.297Z,86.40
2018-05-03T06:54:14.522Z,83.10
2018-05-03T06:56:41.996Z,82.40
2018-05-03T06:59:09.451Z,79.50
2018-05-03T07:01:36.910Z,78.30
2018-05-03T07:04:04.394Z,76.70
2018-05-03T07:06:31.858Z,76.90
2018-05-03T07:08:59.344Z,78.50
2018-05-03T07:11:26.804Z,80.50
2018-05-03T07:13:54.270Z,81.40
2018-05-03T07:16:21.766Z,82.10
2018-05-03T07:18:49.986Z,81.10
2018-05-03T07:21:17.462Z,81.10
2018-05-03T07:23:44.991Z,82.50
2018-05-03T07:26:12.398Z,82.50
2018-05-03T07:28:39.871Z,81.60
2018-05-03T07:31:07.345Z,82.00
2018-05-03T07:33:34.829Z,83.40
2018-05-03T07:36:02.294Z,83.10
2018-05-03T07:38:30.521Z,83.70
2018-05-03T07:40:58.024Z,83.70
2018-05-03T07:43:25.466Z,84.10
2018-05-03T07:45:53.009Z,84.60
2018-05-03T07:48:20.416Z,84.90
2018-05-03T07:50:48.667Z,84.70
2018-05-03T07:53:16.119Z,84.70
2018-05-03T07:55:43.590Z,86.00
2018-05-03T07:58:11.052Z,86.50
2018-05-03T08:00:39.287Z,86.50
2018-05-03T08:03:06.750Z,86.50
2018-05-03T08:05:34.217Z,86.20
2018-05-03T08:08:01.696Z,85.10
2018-05-03T08:10:29.173Z,84.40
2018-05-03T08:12:56.629Z,85.40
2018-05-03T08:15:24.091Z,84.80
2018-05-03T08:17:51.541Z,85.10
2018-05-03T08:20:19.030Z,85.20
2018-05-03T08:22:46.498Z,85.30
2018-05-03T08:25:13.955Z,84.70
2018-05-03T08:27:41.424Z,85.50
2018-05-03T08:30:08.888Z,85.50
2018-05-03T08:32:36.345Z,84.60
2018-05-03T08:35:03.803Z,84.50
2018-05-03T08:37:31.286Z,83.80
2018-05-03T08:39:59.513Z,83.40
2018-05-03T08:42:26.993Z,83.30
2018-05-03T08:44:54.457Z,80.10
2018-05-03T08:47:21.924Z,78.40
2018-05-03T08:49:49.405Z,81.20
2018-05-03T08:52:16.875Z,80.50
2018-05-03T08:54:44.347Z,81.90
2018-05-03T08:57:11.811Z,83.30
2018-05-03T08:59:39.268Z,83.10
2018-05-03T09:02:06.737Z,83.00
2018-05-03T09:04:34.200Z,83.40
2018-05-03T09:07:01.680Z,82.50
2018-05-03T09:09:29.143Z,81.10
2018-05-03T09:11:56.608Z,78.70
2018-05-03T09:14:24.071Z,79.10
2018-05-03T09:16:51.537Z,80.60
2018-05-03T09:19:19.050Z,81.00
2018-05-03T09:21:46.511Z,78.90
2018-05-03T09:24:13.977Z,80.80
2018-05-03T09:26:41.445Z,79.20
2018-05-03T09:29:08.902Z,79.00
2018-05-03T09:31:36.371Z,79.60
2018-05-03T09:34:03.825Z,80.20
2018-05-03T09:36:31.311Z,78.10
2018-05-03T09:38:58.765Z,79.40
2018-05-03T09:41:26.225Z,80.00
2018-05-03T09:43:53.693Z,80.30
2018-05-03T09:46:21.171Z,80.30
2018-05-03T09:48:48.627Z,80.30
2018-05-03T09:51:16.098Z,80.40
2018-05-03T09:53:43.583Z,79.60
2018-05-03T09:56:11.049Z,79.10
2018-05-03T09:58:38.508Z,77.70
2018-05-03T10:01:05.965Z,77.70
2018-05-03T10:03:33.437Z,77.30
2018-05-03T10:06:00.926Z,75.20
2018-05-03T10:08:29.151Z,77.50
2018-05-03T10:10:56.621Z,77.50
2018-05-03T10:13:24.103Z,77.10
2018-05-03T10:15:51.550Z,79.10
2018-05-03T10:18:19.003Z,76.90
2018-05-03T10:20:46.485Z,77.20
2018-05-03T10:23:13.962Z,76.40
2018-05-03T10:25:41.427Z,78.00
2018-05-03T10:28:08.893Z,76.00
2018-05-03T10:30:36.353Z,76.30
2018-05-03T10:33:04.587Z,74.00
2018-05-03T10:35:32.052Z,74.40
2018-05-03T10:37:59.519Z,75.80
2018-05-03T10:40:26.967Z,77.10
2018-05-03T10:42:54.425Z,80.20
2018-05-03T10:45:22.649Z,76.70
2018-05-03T10:47:50.112Z,76.60
2018-05-03T10:50:18.523Z,75.80
2018-05-03T10:52:45.991Z,73.40
2018-05-03T10:55:13.454Z,71.70
2018-05-03T10:57:40.909Z,70.40
2018-05-03T11:00:08.381Z,71.40
2018-05-03T11:02:35.843Z,72.00
2018-05-03T11:05:03.311Z,67.80
2018-05-03T11:07:30.785Z,68.00
2018-05-03T11:09:59.009Z,72.10
2018-05-03T11:12:26.481Z,72.10
2018-05-03T11:14:53.939Z,72.30
2018-05-03T11:17:21.407Z,70.90
2018-05-03T11:19:48.893Z,68.00
2018-05-03T11:22:16.351Z,68.50
2018-05-03T11:24:43.828Z,67.80
2018-05-03T11:27:11.288Z,68.90
2018-05-03T11:29:38.752Z,72.30
2018-05-03T11:32:06.219Z,71.70
2018-05-03T11:34:33.693Z,68.70
2018-05-03T11:37:01.219Z,66.90
2018-05-03T11:39:28.673Z,65.30
2018-05-03T11:41:56.131Z,63.40
2018-05-03T11:44:23.598Z,64.00
2018-05-03T11:46:51.051Z,63.30
2018-05-03T11:49:18.511Z,63.50
2018-05-03T11:51:45.973Z,67.70
2018-05-03T11:54:13.459Z,63.50
2018-05-03T11:56:40.928Z,64.40
2018-05-03T11:59:08.466Z,67.00
2018-05-03T12:01:35.859Z,66.30
2018-05-03T12:04:03.327Z,65.40
2018-05-03T12:06:30.793Z,65.50
2018-05-03T12:08:58.260Z,60.70
2018-05-03T12:11:25.718Z,62.10
2018-05-03T12:13:53.182Z,59.00
2018-05-03T12:16:20.669Z,60.70
2018-05-03T12:18:48.120Z,60.10
2018-05-03T12:21:16.359Z,60.70
2018-05-03T12:23:43.827Z,60.90
2018-05-03T12:26:11.285Z,59.50
2018-05-03T12:28:38.756Z,58.70
2018-05-03T12:31:06.224Z,60.70
2018-05-03T12:33:33.684Z,62.90
2018-05-03T12:36:01.165Z,63.20
2018-05-03T12:38:29.406Z,60.60
2018-05-03T12:40:56.861Z,60.50
2018-05-03T12:43:25.094Z,60.00
2018-05-03T12:45:52.555Z,60.00
2018-05-03T12:48:20.009Z,58.00
2018-05-03T12:50:47.477Z,58.00
2018-05-03T12:53:14.941Z,58.10
2018-05-03T12:55:42.399Z,58.80
2018-05-03T12:58:09.857Z,58.70
2018-05-03T13:00:37.625Z,58.70
2018-05-03T13:03:05.085Z,57.00
2018-05-03T13:05:32.580Z,59.10
2018-05-03T13:08:00.048Z,57.50
2018-05-03T13:10:27.526Z,56.90
2018-05-03T13:12:54.989Z,60.20
2018-05-03T13:15:22.449Z,61.40
2018-05-03T13:17:49.918Z,61.50
2018-05-03T13:20:17.488Z,60.70
2018-05-03T13:22:45.636Z,63.60
2018-05-03T13:25:13.093Z,63.60
2018-05-03T13:27:40.556Z,61.20
2018-05-03T13:30:08.020Z,60.50
2018-05-03T13:32:35.483Z,58.60
2018-05-03T13:35:02.964Z,58.20
2018-05-03T13:37:30.430Z,60.20
2018-05-03T13:39:57.905Z,60.70
2018-05-03T13:42:25.365Z,58.70
2018-05-03T13:44:52.840Z,58.60
2018-05-03T13:47:20.354Z,58.60
2018-05-03T13:49:48.561Z,59.70
2018-05-03T13:52:16.013Z,59.70
2018-05-03T13:54:43.496Z,59.70
2018-05-03T13:57:10.996Z,58.50
2018-05-03T13:59:39.221Z,59.60
2018-05-03T14:02:06.699Z,59.60
2018-05-03T14:04:34.170Z,58.60
2018-05-03T14:07:01.666Z,59.20
2018-05-03T14:09:29.962Z,60.20
2018-05-03T14:11:57.417Z,60.10
2018-05-03T14:14:24.902Z,58.00
2018-05-03T14:16:52.354Z,57.30
2018-05-03T14:19:19.909Z,58.60
2018-05-03T14:21:47.307Z,57.20
2018-05-03T14:24:14.807Z,59.30
2018-05-03T14:26:42.282Z,58.40
2018-05-03T14:29:10.506Z,57.80
2018-05-03T14:31:37.976Z,57.60
2018-05-03T14:34:05.432Z,57.60
2018-05-03T14:36:32.912Z,59.30
2018-05-03T14:39:00.376Z,59.40
2018-05-03T14:41:27.832Z,58.80
2018-05-03T14:43:55.296Z,59.90
2018-05-03T14:46:22.763Z,59.50
2018-05-03T14:48:50.230Z,59.00
2018-05-03T14:51:17.698Z,59.90
2018-05-03T14:53:45.160Z,59.10
2018-05-03T14:56:12.634Z,59.10
2018-05-03T14:58:40.100Z,57.90
2018-05-03T15:01:07.569Z,59.50
2018-05-03T15:03:35.047Z,60.40
2018-05-03T15:06:02.507Z,59.40
2018-05-03T15:08:29.980Z,58.50
2018-05-03T15:10:58.207Z,60.30
2018-05-03T15:13:25.674Z,59.70
2018-05-03T15:15:53.176Z,58.70
2018-05-03T15:18:20.715Z,59.30
2018-05-03T15:20:48.117Z,59.60
2018-05-03T15:23:16.356Z,58.30
2018-05-03T15:25:44.606Z,58.00
2018-05-03T15:28:12.068Z,58.00
2018-05-03T15:30:39.518Z,56.20
2018-05-03T15:33:06.986Z,58.40
2018-05-03T15:35:34.439Z,59.80
2018-05-03T15:38:02.674Z,59.60
2018-05-03T15:40:30.172Z,59.60
2018-05-03T15:42:57.632Z,58.70
2018-05-03T15:45:25.108Z,58.70
2018-05-03T15:47:53.332Z,59.80
2018-05-03T15:50:20.797Z,59.80
2018-05-03T15:52:48.274Z,60.90
2018-05-03T15:55:15.744Z,58.10
2018-05-03T15:57:43.204Z,58.70
2018-05-03T16:00:10.698Z,58.40
2018-05-03T16:02:38.160Z,58.30
2018-05-03T16:05:05.618Z,58.10
2018-05-03T16:07:33.144Z,58.60
2018-05-03T16:10:00.583Z,58.40
2018-05-03T16:12:28.052Z,58.30
2018-05-03T16:14:55.524Z,59.20
2018-05-03T16:17:22.984Z,59.90
2018-05-03T16:19:50.448Z,58.40
2018-05-03T16:22:17.944Z,57.20
2018-05-03T16:24:45.394Z,57.20
2018-05-03T16:27:12.887Z,57.20
2018-05-03T16:29:40.369Z,57.30
2018-05-03T16:32:08.598Z,57.30
2018-05-03T16:34:36.119Z,57.40
2018-05-03T16:37:04.362Z,57.40
2018-05-03T16:39:31.814Z,57.40
2018-05-03T16:41:59.298Z,57.30
2018-05-03T16:44:26.771Z,57.30
2018-05-03T16:46:55.714Z,57.70
2018-05-03T16:49:23.205Z,56.40
2018-05-03T16:51:50.669Z,57.40
2018-05-03T16:54:18.907Z,59.30
2018-05-03T16:56:47.149Z,58.80
2018-05-03T16:59:14.740Z,58.70
2018-05-03T17:01:42.872Z,61.00
2018-05-03T17:04:10.350Z,61.00
2018-05-03T17:06:37.826Z,62.60
2018-05-03T17:09:05.292Z,61.60
2018-05-03T17:11:32.758Z,63.40
2018-05-03T17:14:00.256Z,61.90
2018-05-03T17:16:27.756Z,62.60
2018-05-03T17:18:55.216Z,63.20
2018-05-03T17:21:22.681Z,63.80
2018-05-03T17:23:50.945Z,64.00
2018-05-03T17:26:18.408Z,64.00
2018-05-03T17:28:45.872Z,63.80
2018-05-03T17:31:13.337Z,63.10
2018-05-03T17:33:40.886Z,63.60
2018-05-03T17:36:08.293Z,63.70
2018-05-03T17:38:35.763Z,64.30
2018-05-03T17:41:03.238Z,63.90
2018-05-03T17:43:30.700Z,64.10
2018-05-03T17:45:58.187Z,64.30
2018-05-03T17:48:26.441Z,66.00
2018-05-03T17:50:53.914Z,65.90
2018-05-03T17:53:21.403Z,64.00
2018-05-03T17:55:49.646Z,63.10
2018-05-03T17:58:17.135Z,63.10
2018-05-03T18:00:45.388Z,66.20
2018-05-03T18:03:12.873Z,65.30
2018-05-03T18:05:40.335Z,64.10
2018-05-03T18:08:07.807Z,63.40
2018-05-03T18:10:36.043Z,64.50
2018-05-03T18:13:03.530Z,64.50
2018-05-03T18:15:31.109Z,65.00
2018-05-03T18:17:58.677Z,64.80
2018-05-03T18:20:26.149Z,65.60
2018-05-03T18:22:54.427Z,64.00
2018-05-03T18:25:22.689Z,63.40
2018-05-03T18:27:50.177Z,63.30
2018-05-03T18:30:18.443Z,62.90
2018-05-03T18:32:45.997Z,63.00
2018-05-03T18:35:14.178Z,63.00
2018-05-03T18:37:41.761Z,62.90
2018-05-03T18:40:09.994Z,63.40
2018-05-03T18:42:37.462Z,62.60
2018-05-03T18:45:05.261Z,63.10
2018-05-03T18:47:32.739Z,62.80
2018-05-03T18:50:00.239Z,64.10
2018-05-03T18:52:27.782Z,64.60
2018-05-03T18:54:55.274Z,65.20
2018-05-03T18:57:22.772Z,65.70
2018-05-03T18:59:50.261Z,65.60
2018-05-03T19:02:17.766Z,65.80
2018-05-03T19:04:45.244Z,64.80
2018-05-03T19:07:12.705Z,65.20
2018-05-03T19:09:40.964Z,65.30
2018-05-03T19:12:08.433Z,65.30
2018-05-03T19:14:35.966Z,64.80
2018-05-03T19:17:03.441Z,65.00
2018-05-03T19:19:31.694Z,65.80
2018-05-03T19:21:59.207Z,65.70
2018-05-03T19:24:26.711Z,65.60
2018-05-03T19:26:54.980Z,66.20
2018-05-03T19:29:22.525Z,65.90
2018-05-03T19:31:50.731Z,65.70
2018-05-03T19:34:18.197Z,65.70
2018-05-03T19:36:45.665Z,66.00
2018-05-03T19:39:13.922Z,67.00
2018-05-03T19:41:41.385Z,66.90
2018-05-03T19:44:08.855Z,67.80
2018-05-03T19:46:36.335Z,68.20
2018-05-03T19:49:03.829Z,68.60
2018-05-03T19:51:31.324Z,68.90
2018-05-03T19:53:58.785Z,69.10
2018-05-03T19:56:26.269Z,69.90
2018-05-03T19:58:53.757Z,69.80
2018-05-03T20:01:21.223Z,69.10
2018-05-03T20:03:48.781Z,70.60
2018-05-03T20:06:16.959Z,71.30
2018-05-03T20:08:44.419Z,71.40
2018-05-03T20:11:11.917Z,71.20
2018-05-03T20:13:39.405Z,71.90
2018-05-03T20:16:06.897Z,72.30
2018-05-03T20:18:34.359Z,72.60
2018-05-03T20:21:01.832Z,73.20
2018-05-03T20:23:29.296Z,72.70
2018-05-03T20:25:56.769Z,73.10
2018-05-03T20:28:24.261Z,73.00
2018-05-03T20:30:51.729Z,73.40
2018-05-03T20:33:19.195Z,73.70
2018-05-03T20:35:47.449Z,72.90
2018-05-03T20:38:14.919Z,72.80
2018-05-03T20:40:42.403Z,73.80
2018-05-03T20:43:10.629Z,73.70
2018-05-03T20:45:38.099Z,73.70
2018-05-03T20:48:05.578Z,73.70
2018-05-03T20:50:33.036Z,71.90
2018-05-03T20:53:00.533Z,71.20
2018-05-03T20:55:28.140Z,69.30
2018-05-03T20:57:55.615Z,67.90
2018-05-03T21:00:23.073Z,67.10
2018-05-03T21:02:50.539Z,66.40
2018-05-03T21:05:18.022Z,65.20
2018-05-03T21:07:45.477Z,63.90
2018-05-03T21:10:12.942Z,63.60
2018-05-03T21:12:40.422Z,63.10
2018-05-03T21:15:07.866Z,62.70
2018-05-03T21:17:35.369Z,63.10
2018-05-03T21:20:02.835Z,62.70
2018-05-03T21:22:30.304Z,62.80
2018-05-03T21:24:57.760Z,62.80
2018-05-03T21:27:25.234Z,63.20
2018-05-03T21:29:53.491Z,63.30
2018-05-03T21:32:20.961Z,62.80
2018-05-03T21:34:48.427Z,63.30
2018-05-03T21:37:15.900Z,63.80
2018-05-03T21:39:43.360Z,63.70
2018-05-03T21:42:10.837Z,64.30
2018-05-03T21:44:39.076Z,63.80
2018-05-03T21:47:06.547Z,63.80
2018-05-03T21:49:34.013Z,64.30
2018-05-03T21:52:01.508Z,64.80
2018-05-03T21:54:29.770Z,65.10
2018-05-03T21:56:57.231Z,65.80
2018-05-03T21:59:24.699Z,65.50
2018-05-03T22:01:52.188Z,64.30
2018-05-03T22:04:20.427Z,64.00
2018-05-03T22:06:47.912Z,64.00
2018-05-03T22:09:15.385Z,64.10
2018-05-03T22:11:42.843Z,64.20
2018-05-03T22:14:10.310Z,63.60
2018-05-03T22:16:37.777Z,63.60
2018-05-03T22:19:05.264Z,64.10
2018-05-03T22:21:33.482Z,64.30
2018-05-03T22:24:00.953Z,64.30
2018-05-03T22:26:28.413Z,64.00
2018-05-03T22:28:55.898Z,64.20
2018-05-03T22:31:23.369Z,63.60
2018-05-03T22:33:50.829Z,63.80
2018-05-03T22:36:18.296Z,63.80
2018-05-03T22:38:45.758Z,64.10
2018-05-03T22:41:13.218Z,64.40
2018-05-03T22:43:40.700Z,64.60
2018-05-03T22:46:08.929Z,64.80
2018-05-03T22:48:36.398Z,64.80
2018-05-03T22:51:03.860Z,64.40
2018-05-03T22:53:31.321Z,64.40
2018-05-03T22:55:58.807Z,64.60
2018-05-03T22:58:26.280Z,65.00
2018-05-03T23:00:53.749Z,65.30
2018-05-03T23:03:21.213Z,65.30
2018-05-03T23:05:48.677Z,64.80
2018-05-03T23:08:16.157Z,65.30
2018-05-03T23:10:44.386Z,66.00
2018-05-03T23:13:12.615Z,66.10
2018-05-03T23:15:40.844Z,66.30
2018-05-03T23:18:08.309Z,66.30
2018-05-03T23:20:35.797Z,66.50
2018-05-03T23:23:03.254Z,66.80
2018-05-03T23:25:30.721Z,67.10
2018-05-03T23:27:58.192Z,67.30
2018-05-03T23:30:25.669Z,67.70
2018-05-03T23:32:53.920Z,68.40
2018-05-03T23:35:21.387Z,68.20
2018-05-03T23:37:48.857Z,68.40
2018-05-03T23:40:16.338Z,68.40
2018-05-03T23:42:43.810Z,68.60
2018-05-03T23:45:12.060Z,69.30
2018-05-03T23:47:39.540Z,69.30
2018-05-03T23:50:07.007Z,69.30
2018-05-03T23:52:34.469Z,69.60
2018-05-03T23:55:01.945Z,69.50
2018-05-03T23:57:30.211Z,70.20
2018-05-03T23:59:57.677Z,70.20
